createdAt,value
2022-10-03T08:13:02.479Z,7.93
2022-10-03T08:16:16.363Z,7.93
2022-10-03T08:19:10.513Z,8.10
2022-10-03T08:22:17.320Z,8.32
2022-10-03T08:25:29.698Z,8.47
2022-10-03T08:28:51.823Z,8.60
2022-10-03T08:32:04.682Z,8.68
2022-10-03T08:35:08.317Z,8.84
2022-10-03T08:38:33.477Z,8.94
2022-10-03T08:41:37.566Z,9.06
2022-10-03T08:45:08.110Z,9.22
2022-10-03T08:47:53.271Z,9.32
2022-10-03T08:51:12.639Z,9.48
2022-10-03T08:54:13.811Z,9.64
2022-10-03T08:57:19.998Z,9.72
2022-10-03T09:00:05.167Z,9.87
2022-10-03T09:03:33.367Z,10.00
2022-10-03T09:06:29.214Z,10.16
2022-10-03T09:09:51.558Z,10.27
2022-10-03T09:13:14.344Z,10.31
2022-10-03T09:16:20.695Z,10.40
2022-10-03T09:19:45.022Z,10.62
2022-10-03T09:22:49.786Z,10.82
2022-10-03T09:25:50.349Z,10.98
2022-10-03T09:28:53.690Z,11.18
2022-10-03T09:32:18.942Z,11.25
2022-10-03T09:35:33.571Z,11.39
2022-10-03T09:39:05.821Z,11.51
2022-10-03T09:42:09.694Z,11.65
2022-10-03T09:45:16.338Z,11.82
2022-10-03T09:48:26.356Z,11.92
2022-10-03T09:51:25.336Z,12.09
2022-10-03T09:54:44.165Z,12.23
2022-10-03T09:57:51.889Z,12.36
2022-10-03T10:01:05.821Z,12.54
2022-10-03T10:04:12.369Z,12.71
2022-10-03T10:07:35.299Z,12.77
2022-10-03T10:10:46.944Z,12.90
2022-10-03T10:14:07.625Z,13.02
2022-10-03T10:17:26.629Z,13.23
2022-10-03T10:20:39.360Z,13.52
2022-10-03T10:23:30.163Z,13.72
2022-10-03T10:26:54.092Z,13.79
2022-10-03T10:29:50.960Z,13.91
2022-10-03T10:33:06.899Z,14.04
2022-10-03T10:36:27.915Z,14.14
2022-10-03T10:40:02.118Z,14.20
2022-10-03T10:43:10.799Z,14.23
2022-10-03T10:46:33.364Z,14.23
2022-10-03T10:49:27.798Z,14.24
2022-10-03T10:52:50.603Z,14.45
2022-10-03T10:56:00.473Z,14.88
2022-10-03T10:59:05.572Z,15.31
2022-10-03T11:02:23.137Z,15.50
2022-10-03T11:05:32.144Z,15.77
2022-10-03T11:08:59.840Z,16.03
2022-10-03T11:11:59.776Z,15.86
2022-10-03T11:15:03.493Z,15.69
2022-10-03T11:18:08.321Z,15.63
2022-10-03T11:21:08.393Z,15.62
2022-10-03T11:24:19.367Z,15.54
2022-10-03T11:27:32.385Z,15.47
2022-10-03T11:30:17.215Z,15.44
2022-10-03T11:33:05.325Z,15.50
2022-10-03T11:36:17.943Z,15.64
2022-10-03T11:39:42.110Z,16.29
2022-10-03T11:42:45.327Z,17.06
2022-10-03T11:45:42.864Z,17.30
2022-10-03T11:48:42.642Z,17.51
2022-10-03T11:51:42.278Z,17.52
2022-10-03T11:54:34.183Z,17.78
2022-10-03T11:57:30.697Z,17.93
2022-10-03T12:00:20.561Z,17.89
2022-10-03T12:03:34.768Z,17.69
2022-10-03T12:06:59.749Z,17.58
2022-10-03T12:10:02.948Z,17.44
2022-10-03T12:12:55.246Z,17.47
2022-10-03T12:15:46.261Z,17.37
2022-10-03T12:18:55.078Z,17.35
2022-10-03T12:21:43.577Z,17.48
2022-10-03T12:24:34.139Z,17.82
2022-10-03T12:27:40.136Z,18.29
2022-10-03T12:30:31.441Z,18.49
2022-10-03T12:33:40.402Z,18.55
2022-10-03T12:36:49.264Z,18.49
2022-10-03T12:39:51.520Z,18.50
2022-10-03T12:42:46.958Z,18.45
2022-10-03T12:45:48.512Z,18.33
2022-10-03T12:48:59.032Z,18.24
2022-10-03T12:51:54.210Z,18.24
2022-10-03T12:54:49.873Z,18.30
2022-10-03T12:58:01.869Z,18.17
2022-10-03T13:01:25.035Z,18.22
2022-10-03T13:04:38.256Z,18.75
2022-10-03T13:07:28.436Z,18.85
2022-10-03T13:10:42.332Z,18.89
2022-10-03T13:13:49.762Z,19.18
2022-10-03T13:16:45.418Z,19.17
2022-10-03T13:20:10.181Z,19.22
2022-10-03T13:23:07.658Z,19.16
2022-10-03T13:26:08.862Z,19.15
2022-10-03T13:29:26.381Z,19.44
2022-10-03T13:32:26.561Z,19.79
2022-10-03T13:35:41.334Z,19.75
2022-10-03T13:38:46.826Z,19.59
2022-10-03T13:41:45.712Z,19.48
2022-10-03T13:44:50.195Z,19.45
2022-10-03T13:47:52.102Z,19.60
2022-10-03T13:51:02.416Z,19.65
2022-10-03T13:53:59.923Z,19.30
2022-10-03T13:57:08.075Z,19.26
2022-10-03T13:59:53.314Z,19.20
2022-10-03T14:02:44.512Z,19.23
2022-10-03T14:05:32.977Z,19.28
2022-10-03T14:08:39.538Z,19.36
2022-10-03T14:11:44.350Z,19.11
2022-10-03T14:14:54.057Z,19.02
2022-10-03T14:17:46.560Z,18.90
2022-10-03T14:20:37.561Z,18.72
2022-10-03T14:23:29.307Z,18.55
2022-10-03T14:26:29.430Z,18.50
2022-10-03T14:29:43.037Z,18.50
2022-10-03T14:32:59.766Z,18.37
2022-10-03T14:36:06.557Z,18.23
2022-10-03T14:39:09.814Z,18.11
2022-10-03T14:41:54.705Z,18.14
2022-10-03T14:44:46.139Z,18.12
2022-10-03T14:47:42.752Z,18.11
2022-10-03T14:50:31.326Z,18.08
2022-10-03T14:53:27.161Z,17.97
2022-10-03T14:56:14.286Z,18.03
2022-10-03T14:59:03.329Z,17.98
2022-10-03T15:01:52.640Z,17.97
2022-10-03T15:04:41.841Z,18.02
2022-10-03T15:07:39.947Z,17.99
2022-10-03T15:10:27.872Z,18.06
2022-10-03T15:13:19.084Z,18.19
2022-10-03T15:16:05.504Z,18.18
2022-10-03T15:18:58.409Z,18.13
2022-10-03T15:21:46.495Z,17.97
2022-10-03T15:24:35.253Z,17.93
2022-10-03T15:27:23.315Z,17.78
2022-10-03T15:30:20.569Z,17.78
2022-10-03T15:33:17.447Z,17.79
2022-10-03T15:36:22.725Z,17.70
2022-10-03T15:39:23.212Z,17.60
2022-10-03T15:42:08.264Z,17.47
2022-10-03T15:44:59.137Z,17.45
2022-10-03T15:47:46.542Z,17.36
2022-10-03T15:50:40.842Z,17.34
2022-10-03T15:53:36.538Z,17.36
2022-10-03T15:56:44.976Z,17.21
2022-10-03T15:59:43.520Z,17.13
2022-10-03T16:02:39.846Z,17.13
2022-10-03T16:05:27.390Z,17.08
2022-10-03T16:08:21.293Z,16.98
2022-10-03T16:11:17.387Z,16.99
2022-10-03T16:14:27.341Z,16.97
2022-10-03T16:17:28.874Z,16.94
2022-10-03T16:20:44.960Z,16.99
2022-10-03T16:23:38.293Z,16.95
2022-10-03T16:26:35.614Z,16.92
2022-10-03T16:29:34.952Z,16.83
2022-10-03T16:32:27.732Z,16.81
2022-10-03T16:35:27.961Z,16.73
2022-10-03T16:38:24.462Z,16.64
2022-10-03T16:41:24.510Z,16.57
2022-10-03T16:44:20.930Z,16.49
2022-10-03T16:47:07.978Z,16.37
2022-10-03T16:50:16.406Z,16.37
2022-10-03T16:53:07.759Z,16.24
2022-10-03T16:56:04.647Z,16.16
2022-10-03T16:58:55.837Z,16.08
2022-10-03T17:01:50.706Z,15.99
2022-10-03T17:04:43.485Z,15.85
2022-10-03T17:07:35.984Z,15.72
2022-10-03T17:10:32.474Z,15.63
2022-10-03T17:13:38.446Z,15.55
2022-10-03T17:16:29.504Z,15.48
2022-10-03T17:19:20.538Z,15.39
2022-10-03T17:22:10.612Z,15.31
2022-10-03T17:25:04.602Z,15.27
2022-10-03T17:27:51.781Z,15.22
2022-10-03T17:30:47.182Z,15.16
2022-10-03T17:33:46.309Z,15.07
2022-10-03T17:37:03.206Z,14.95
2022-10-03T17:39:58.664Z,14.93
2022-10-03T17:42:52.489Z,14.91
2022-10-03T17:45:51.978Z,14.86
2022-10-03T17:48:41.257Z,14.85
2022-10-03T17:51:35.037Z,14.77
2022-10-03T17:54:33.644Z,14.73
2022-10-03T17:57:25.213Z,14.72
2022-10-03T18:00:27.535Z,14.67
2022-10-03T18:03:44.722Z,14.56
2022-10-03T18:06:29.798Z,14.48
2022-10-03T18:09:15.004Z,14.41
2022-10-03T18:12:12.066Z,14.36
2022-10-03T18:15:16.233Z,14.30
2022-10-03T18:18:26.270Z,14.28
2022-10-03T18:21:30.568Z,14.24
2022-10-03T18:24:43.299Z,14.19
2022-10-03T18:28:04.810Z,14.10
2022-10-03T18:30:57.178Z,14.08
2022-10-03T18:34:14.181Z,14.04
2022-10-03T18:37:04.119Z,13.99
2022-10-03T18:39:54.369Z,13.96
2022-10-03T18:42:40.633Z,13.90
2022-10-03T18:45:44.624Z,13.82
2022-10-03T18:48:35.219Z,13.78
2022-10-03T18:51:32.083Z,13.79
2022-10-03T18:54:35.237Z,13.72
2022-10-03T18:57:34.113Z,13.69
2022-10-03T19:00:25.234Z,13.60
2022-10-03T19:03:17.509Z,13.50
2022-10-03T19:06:33.355Z,13.45
2022-10-03T19:09:22.238Z,13.32
2022-10-03T19:12:24.094Z,13.20
2022-10-03T19:15:22.517Z,13.14
2022-10-03T19:18:27.835Z,13.03
2022-10-03T19:21:18.922Z,13.04
2022-10-03T19:24:17.566Z,13.03
2022-10-03T19:27:12.001Z,12.99
2022-10-03T19:29:59.007Z,12.99
2022-10-03T19:32:52.505Z,12.94
2022-10-03T19:35:45.190Z,12.94
2022-10-03T19:38:37.706Z,12.89
2022-10-03T19:41:36.758Z,12.83
2022-10-03T19:44:25.950Z,12.80
2022-10-03T19:47:19.139Z,12.82
2022-10-03T19:50:19.107Z,12.77
2022-10-03T19:53:18.479Z,12.67
2022-10-03T19:56:04.541Z,12.79
2022-10-03T19:59:04.236Z,12.82
2022-10-03T20:01:50.212Z,12.80
2022-10-03T20:04:37.125Z,12.78
2022-10-03T20:07:36.665Z,12.76
2022-10-03T20:10:43.754Z,12.66
2022-10-03T20:13:42.478Z,12.60
2022-10-03T20:16:33.193Z,12.52
2022-10-03T20:19:25.160Z,12.50
2022-10-03T20:22:13.494Z,12.61
2022-10-03T20:25:00.225Z,12.62
2022-10-03T20:27:51.859Z,12.63
2022-10-03T20:30:40.367Z,12.67
2022-10-03T20:33:31.611Z,12.70
2022-10-03T20:36:25.836Z,12.76
2022-10-03T20:39:17.729Z,12.75
2022-10-03T20:42:26.161Z,12.77
2022-10-03T20:45:29.363Z,12.74
2022-10-03T20:48:20.557Z,12.73
2022-10-03T20:51:05.570Z,12.66
2022-10-03T20:53:54.723Z,12.68
2022-10-03T20:56:51.525Z,12.69
2022-10-03T21:00:10.277Z,12.72
2022-10-03T21:03:04.059Z,12.70
2022-10-03T21:05:55.180Z,12.67
2022-10-03T21:08:41.665Z,12.58
2022-10-03T21:11:32.934Z,12.49
2022-10-03T21:14:25.546Z,12.38
2022-10-03T21:17:16.133Z,12.31
2022-10-03T21:20:07.635Z,12.26
2022-10-03T21:22:59.604Z,12.22
2022-10-03T21:25:45.413Z,12.29
2022-10-03T21:28:32.794Z,12.29
2022-10-03T21:31:35.225Z,12.21
2022-10-03T21:34:33.574Z,12.23
2022-10-03T21:37:31.066Z,12.18
2022-10-03T21:40:32.647Z,12.14
2022-10-03T21:43:39.849Z,12.13
2022-10-03T21:46:37.621Z,12.13
2022-10-03T21:49:32.119Z,12.12
2022-10-03T21:52:32.441Z,12.04
2022-10-03T21:55:51.818Z,11.96
2022-10-03T21:58:53.255Z,11.93
2022-10-03T22:01:52.948Z,11.86
2022-10-03T22:04:48.649Z,11.79
2022-10-03T22:07:42.270Z,11.84
2022-10-03T22:10:32.064Z,11.84
2022-10-03T22:13:19.083Z,11.80
2022-10-03T22:16:14.544Z,11.78
2022-10-03T22:19:05.578Z,11.78
2022-10-03T22:22:06.027Z,11.78
2022-10-03T22:24:57.318Z,11.79
2022-10-03T22:27:54.541Z,11.74
2022-10-03T22:30:50.451Z,11.77
2022-10-03T22:33:54.135Z,11.69
2022-10-03T22:36:40.603Z,11.71
2022-10-03T22:39:26.625Z,11.69
2022-10-03T22:42:14.909Z,11.60
2022-10-03T22:45:02.990Z,11.63
2022-10-03T22:47:52.782Z,11.60
2022-10-03T22:50:41.536Z,11.55
2022-10-03T22:53:31.935Z,11.50
2022-10-03T22:56:42.500Z,11.42
2022-10-03T22:59:31.404Z,11.44
2022-10-03T23:02:18.735Z,11.44
2022-10-03T23:05:09.654Z,11.37
2022-10-03T23:08:09.956Z,11.37
2022-10-03T23:11:08.608Z,11.36
2022-10-03T23:13:56.230Z,11.32
2022-10-03T23:16:56.162Z,11.25
2022-10-03T23:20:02.426Z,11.34
2022-10-03T23:22:54.229Z,11.32
2022-10-03T23:25:58.717Z,11.26
2022-10-03T23:29:14.848Z,11.19
2022-10-03T23:31:59.787Z,11.12
2022-10-03T23:34:46.351Z,11.13
2022-10-03T23:37:40.581Z,11.08
2022-10-03T23:40:39.897Z,11.06
2022-10-03T23:43:26.358Z,11.02
2022-10-03T23:46:15.245Z,10.95
2022-10-03T23:49:01.909Z,10.91
2022-10-03T23:51:48.246Z,10.91
2022-10-03T23:54:33.481Z,10.95
2022-10-03T23:57:20.198Z,10.92
